• Join FlightAware (Why Join?)
  • Login
  • US Flag 
02:14AM EST


 

Airport Tracker/Info


-or-


 

Live Flight TrackerFlight Track Log ✈ UPS104 ✈ 21-Jul-2014 ✈ PANC - RJBB / KIX

Flight Track Log - Related Links

Times and Time Zones

All times are in EDT time to prevent confusion due to time zone crossing. See the UPS104 flight status page for this flight to view local times or setup timezone preferences in your user account.

Time Position Orientation Groundspeed Altitude Reporting Facility
EDT Latitude Longitude Course Direction KTS MPH feet Rate Location/Type
12:32PM 61.1925 -150.0106 345° North 178 205 200  Level FlightAware ADS-B
12:33PM 61.2008 -150.0152 348° North 170 196 700 3,180 Climbing FlightAware ADS-B (PAEN / ENA)
12:33PM 61.2119 -150.0213 336° Northwest 169 194 1,700 2,820 Climbing FlightAware ADS-B (PAEN / ENA)
12:33PM 61.2162 -150.0263 326° Northwest 178 205 1,800 1,260 Climbing FlightAware ADS-B
12:33PM 61.2314 -150.0494 323° Northwest 209 241 2,200 1,380 Climbing FlightAware ADS-B
12:34PM 61.2466 -150.0742 322° Northwest 233 268 2,700 2,040 Climbing FlightAware ADS-B
12:34PM 61.2631 -150.1014 320° Northwest 244 281 3,500 2,580 Climbing FlightAware ADS-B (PAEN / ENA)
12:34PM 61.2711 -150.1201 301° West 253 291 4,000 2,160 Climbing FlightAware ADS-B
12:34PM 61.2759 -150.1452 282° West 263 303 4,300 2,700 Climbing FlightAware ADS-B
12:35PM 61.2781 -150.1926 273° West 267 307 5,400 3,180 Climbing FlightAware ADS-B
12:35PM 61.2792 -150.2456 273° West 274 315 6,400 3,000 Climbing FlightAware ADS-B
12:35PM 61.2805 -150.2997 272° West 279 321 7,400 3,180 Climbing FlightAware ADS-B
12:36PM 61.2812 -150.3543 271° West 281 323 8,600 3,120 Climbing FlightAware ADS-B
12:36PM 61.2817 -150.4041 271° West 287 330 9,400 2,340 Climbing FlightAware ADS-B (PAEN / ENA)
12:36PM 61.2820 -150.4891 271° West 309 356 10,500 1,680 Climbing FlightAware ADS-B (PAEN / ENA)
12:37PM 61.2827 -150.5830 271° West 347 399 11,100 1,560 Climbing FlightAware ADS-B (PAEN / ENA)
12:37PM 61.2830 -150.6870 270° West 373 429 12,100 2,400 Climbing FlightAware ADS-B (PAEN / ENA)
12:38PM 61.2833 -150.7877 270° West 378 435 13,500 2,880 Climbing FlightAware ADS-B (PAEN / ENA)
12:38PM 61.2838 -150.9059 271° West 384 442 15,000 2,820 Climbing FlightAware ADS-B (PAEN / ENA)
12:39PM 61.2842 -151.0227 270° West 392 451 16,500 2,640 Climbing FlightAware ADS-B
12:39PM 61.2844 -151.1409 270° West 398 458 17,800 2,520 Climbing FlightAware ADS-B
12:40PM 61.2847 -151.2941 270° West 407 468 19,400 2,400 Climbing FlightAware ADS-B
12:41PM 61.2848 -151.4122 270° West 411 473 20,600 2,220 Climbing FlightAware ADS-B
12:41PM 61.2846 -151.5307 270° West 417 480 21,700 2,100 Climbing FlightAware ADS-B
12:42PM 61.2845 -151.6461 270° West 423 487 22,700 2,100 Climbing FlightAware ADS-B
12:42PM 61.2842 -151.7749 270° West 427 491 23,800 2,100 Climbing FlightAware ADS-B
12:43PM 61.2838 -151.8959 270° West 431 496 24,800 1,800 Climbing FlightAware ADS-B
12:43PM 61.2832 -152.0217 270° West 438 504 25,600 1,620 Climbing FlightAware ADS-B
12:44PM 61.2840 -152.1610 271° West 445 512 26,500 1,620 Climbing FlightAware ADS-B (PAEN / ENA)
12:44PM 61.2849 -152.2858 271° West 450 518 27,300 2,100 Climbing FlightAware ADS-B (PAEN / ENA)
12:45PM 61.2855 -152.4135 270° West 443 510 28,600 2,340 Climbing FlightAware ADS-B (PAEN / ENA)
12:45PM 61.2860 -152.5765 270° West 437 503 30,000 2,100 Climbing FlightAware ADS-B
12:46PM 61.2862 -152.6966 270° West 434 499 31,000 1,860 Climbing FlightAware ADS-B
12:46PM 61.2862 -152.8271 270° West 429 494 31,900 1,740 Climbing FlightAware ADS-B
12:47PM 61.2861 -152.9731 270° West 424 488 33,000 1,620 Climbing FlightAware ADS-B (PAEN / ENA)
12:47PM 61.2859 -153.1112 270° West 420 483 33,800 780 Climbing FlightAware ADS-B
12:48PM 61.2855 -153.2750 270° West 429 494 34,000 120 Climbing FlightAware ADS-B
12:49PM 61.2851 -153.4011 270° West 433 498 34,000  Level FlightAware ADS-B
12:49PM 61.2846 -153.5140 269° West 436 502 34,000  Level FlightAware ADS-B
12:50PM 61.2836 -153.6932 269° West 439 505 34,000  Level FlightAware ADS-B
12:50PM 61.2828 -153.8208 269° West 438 504 34,000  Level FlightAware ADS-B
12:51PM 61.2819 -153.9450 269° West 438 504 34,000  Level FlightAware ADS-B
12:51PM 61.2810 -154.0570 269° West 438 504 34,000  Level FlightAware ADS-B
12:52PM 61.2794 -154.2240 269° West 439 505 34,000  Level FlightAware ADS-B (PAEN / ENA)
12:52PM 61.2781 -154.3427 269° West 438 504 34,000  Level FlightAware ADS-B (PAEN / ENA)
12:53PM 61.2767 -154.4690 269° West 439 505 34,000  Level FlightAware ADS-B (PAEN / ENA)
12:53PM 61.2748 -154.6171 268° West 439 505 34,000  Level FlightAware ADS-B
12:54PM 61.2726 -154.7872 268° West 439 505 34,000  Level FlightAware ADS-B (PAEN / ENA)
12:55PM 61.2698 -154.9765 268° West 439 505 34,000  Level FlightAware ADS-B (PAEN / ENA)
12:55PM 61.2676 -155.1047 268° West 439 505 34,000  Level FlightAware ADS-B (PAEN / ENA)
12:56PM 61.2645 -155.2918 268° West 438 504 34,000  Level FlightAware ADS-B (PAEN / ENA)
12:57PM 61.2622 -155.4194 268° West 438 504 34,000  Level FlightAware ADS-B (PAEN / ENA)
12:57PM 61.2585 -155.6066 268° West 438 504 34,000  Level FlightAware ADS-B (PAEN / ENA)
12:58PM 61.2545 -155.7980 267° West 439 505 34,000  Level FlightAware ADS-B (PAEN / ENA)
12:59PM 61.2509 -155.9791 269° West 438 504 34,000  Level FlightAware ADS-B (PAEN / ENA)
12:59PM 61.2507 -156.1057 270° West 438 504 34,000  Level FlightAware ADS-B (PAEN / ENA)
01:00PM 61.2511 -156.2083 271° West 437 503 34,000  Level FlightAware ADS-B (PAEN / ENA)
01:00PM 61.2519 -156.3631 271° West 437 503 34,000  Level FlightAware ADS-B (PAEN / ENA)
01:01PM 61.2500 -156.4667 271° West 430 495 34,000  Level Anchorage Center
01:02PM 61.2500 -156.7333 270° West 430 495 34,000  Level Anchorage Center
01:03PM 61.2500 -156.9667 270° West 430 495 34,000  Level Anchorage Center
01:04PM 61.2500 -157.2333 270° West 430 495 34,000  Level Anchorage Center
01:06PM 61.2500 -157.7167 270° West 430 495 34,000  Level Anchorage Center
01:07PM 61.2333 -157.9833 263° West 430 495 34,000  Level Anchorage Center
01:08PM 61.2333 -158.2167 270° West 430 495 34,000  Level Anchorage Center
01:09PM 61.2333 -158.4667 270° West 430 495 34,000  Level Anchorage Center
01:10PM 61.2333 -158.7333 270° West 430 495 34,000  Level Anchorage Center
01:11PM 61.2333 -158.9833 270° West 430 495 34,000  Level Anchorage Center
01:13PM 61.2167 -159.4833 266° West 440 506 34,000  Level Anchorage Center
01:14PM 61.2167 -159.7500 270° West 440 506 34,000  Level Anchorage Center
01:15PM 61.2167 -160.0000 270° West 440 506 34,000  Level Anchorage Center
01:22PM 61.1690 -161.6980 266° West 438 504 34,000  Level FlightAware ADS-B
01:22PM 61.1661 -161.7791 266° West 439 505 34,000  Level FlightAware ADS-B
01:23PM 61.1534 -162.1225 266° West 441 507 34,000  Level FlightAware ADS-B
01:24PM 61.1497 -162.2156 266° West 442 509 34,000  Level FlightAware ADS-B
01:24PM 61.1424 -162.3988 266° West 443 510 34,000  Level FlightAware ADS-B
01:25PM 61.1375 -162.5187 265° West 444 511 34,000  Level FlightAware ADS-B
01:25PM 61.1329 -162.6278 265° West 444 511 34,000  Level FlightAware ADS-B
01:26PM 61.1233 -162.8511 265° West 445 512 34,000  Level FlightAware ADS-B
01:27PM 61.1221 -162.8779 265° West 445 512 34,000  Level FlightAware ADS-B
01:29PM 61.0455 -163.5082 254° West 443 510 34,000  Level FlightAware ADS-B
01:31PM 60.9710 -164.0238 254° West 440 506 34,000  Level FlightAware ADS-B
01:32PM 60.9431 -164.2126 253° West 439 505 34,000  Level FlightAware ADS-B
01:32PM 60.9368 -164.2548 254° West 439 505 34,000  Level FlightAware ADS-B
01:33PM 60.9056 -164.4636 253° West 436 502 34,000  Level FlightAware ADS-B
01:33PM 60.8993 -164.5058 253° West 436 502 34,000  Level FlightAware ADS-B
01:34PM 60.8711 -164.6915 253° West 436 502 34,000  Level FlightAware ADS-B
01:34PM 60.8539 -164.8038 253° West 435 501 34,000  Level FlightAware ADS-B
01:35PM 60.8335 -164.9362 253° West 435 501 34,000  Level FlightAware ADS-B
01:35PM 60.8172 -165.0414 253° West 435 501 34,000  Level FlightAware ADS-B
01:36PM 60.7975 -165.1673 253° West 435 501 34,000  Level FlightAware ADS-B
01:36PM 60.7819 -165.2663 252° West 436 502 34,000  Level FlightAware ADS-B
01:37PM 60.7603 -165.4025 253° West 438 504 34,000  Level FlightAware ADS-B
01:38PM 60.7167 -165.6500 253° West 430 495 34,000  Level Anchorage Center
01:39PM 60.6667 -165.8833 246° West 430 495 34,000  Level Anchorage Center
01:40PM 60.6333 -166.1333 255° West 430 495 34,000  Level Anchorage Center
01:41PM 60.6000 -166.3667 254° West 440 506 34,000  Level Anchorage Center
01:42PM 60.5500 -166.6000 247° West 440 506 34,000  Level Anchorage Center
01:43PM 60.5167 -166.8333 254° West 440 506 34,000  Level Anchorage Center
01:44PM 60.4833 -167.0500 253° West 430 495 34,000  Level Anchorage Center
01:45PM 60.4333 -167.3000 248° West 450 518 34,000  Level Anchorage Center
01:46PM 60.3833 -167.5500 248° West 460 529 34,000  Level Anchorage Center
01:47PM 60.3500 -167.7833 254° West 430 495 34,000  Level Anchorage Center
01:48PM 60.3000 -167.9667 241° Southwest 420 483 34,000  Level Anchorage Center
01:49PM 60.2500 -168.2667 252° West 450 518 34,000  Level Anchorage Center
01:50PM 60.2167 -168.5000 254° West 450 518 34,000  Level Anchorage Center
01:51PM 60.1667 -168.7333 247° West 440 506 34,000  Level Anchorage Center
01:52PM 60.1167 -168.9667 247° West 440 506 34,000  Level Anchorage Center
01:53PM 60.0833 -169.2000 254° West 450 518 34,000  Level Anchorage Center
01:54PM 60.0333 -169.4500 248° West 460 529 34,000  Level Anchorage Center
01:55PM 60.0000 -169.6333 250° West 470 541 34,000  Level Anchorage Center
01:56PM 59.9500 -169.9167 251° West 460 529 34,000  Level Anchorage Center
01:57PM 59.9000 -170.1667 248° West 460 529 34,000  Level Anchorage Center
01:58PM 59.8500 -170.4000 247° West 450 518 34,000  Level Anchorage Center
02:00PM 59.7500 -170.8500 248° West 460 529 34,000  Level Anchorage Center
02:01PM 59.7000 -171.1000 248° West 460 529 34,000  Level Anchorage Center
02:07PM 59.4167 -172.5000 247° West 450 518 34,000  Level Anchorage Center
02:08PM 59.3667 -172.7167 246° West 440 506 34,000  Level Anchorage Center
02:09PM 59.3167 -172.9500 247° West 450 518 34,000  Level Anchorage Center
02:10PM 59.2667 -173.1667 246° West 440 506 34,000  Level Anchorage Center
02:11PM 59.1491 -173.7460 249° West  Level FlightAware Approximate
02:11PM 59.2167 -173.4000 247° West 450 518 34,000  Level Anchorage Center
02:12PM 59.0996 -173.9740 247° West  Level FlightAware Approximate
02:12PM 59.1667 -173.6167 246° West 440 506 34,000  Level Anchorage Center
02:13PM 59.0497 -174.2013 247° West  Level FlightAware Approximate
02:13PM 59.1167 -173.8500 247° West 450 518 34,000  Level Anchorage Center
02:14PM 59.0833 -174.0667 253° West 440 506 34,000  Level Anchorage Center
02:15PM 59.0333 -174.3000 247° West 440 506 34,000  Level Anchorage Center
02:16PM 58.9667 -174.5167 239° Southwest 460 529 34,000  Level Anchorage Center
02:17PM 58.9333 -174.7500 255° West 450 518 34,000  Level Anchorage Center
02:18PM 58.8833 -174.9667 246° West 450 518 34,000  Level Anchorage Center
02:19PM 58.8333 -175.1833 246° West 440 506 34,000  Level Anchorage Center
02:20PM 58.7667 -175.4000 239° Southwest 450 518 34,000  Level Anchorage Center
02:21PM 58.7333 -175.6167 254° West 440 506 34,000  Level Anchorage Center
02:22PM 58.6833 -175.8500 248° West 450 518 34,000  Level Anchorage Center
02:25PM 58.5667 -176.3167 245° Southwest 450 518 34,000  Level Anchorage Center
02:26PM 58.5000 -176.5333 240° Southwest 450 518 34,000  Level Anchorage Center
02:27PM 58.4500 -176.7500 246° West 440 506 34,000  Level Anchorage Center
02:28PM 58.4167 -176.9167 249° West 440 506 34,000  Level Anchorage Center
02:30PM 58.2833 -177.5000 244° Southwest 453 521 34,000  Level Anchorage Center
02:40PM 57.7500 -179.5333 243° Southwest 446 513 34,000  Level Anchorage Center
02:49PM 57.2000 178.5333 241° Southwest 441 507 34,000  Level Anchorage Center
02:55PM 56.8333 177.3500 240° Southwest 463 533 34,000  Level Anchorage Center
02:59PM 56.5833 176.5833 239° Southwest 464 534 34,000  Level Anchorage Center
03:08PM 55.9333 174.7167 237° Southwest 440 506 34,000  Level Anchorage Center
03:09PM 55.9168 174.6193 238° Southwest 464 534 34,000  Level FlightAware Transoceanic
03:09PM 55.8833 174.5333 244° Southwest 460 529 34,000  Level Anchorage Center
03:10PM 55.8484 174.4266 238° Southwest 464 534 34,000  Level FlightAware Transoceanic
03:10PM 55.8000 174.3000 238° Southwest 480 552 34,000  Level Anchorage Center
03:11PM 55.7798 174.2346 237° Southwest 464 534 34,000  Level FlightAware Transoceanic
03:11PM 55.7167 174.1000 234° Southwest 470 541 34,000  Level Anchorage Center
03:12PM 55.7109 174.0434 237° Southwest 464 534 34,000  Level FlightAware Transoceanic
03:12PM 55.6667 173.9333 242° Southwest 460 529 34,000  Level Anchorage Center
03:13PM 55.6416 173.8527 237° Southwest 464 534 34,000  Level FlightAware Transoceanic
03:13PM 55.5833 173.7333 234° Southwest 460 529 34,000  Level Anchorage Center
03:14PM 55.5721 173.6628 237° Southwest 464 534 34,000  Level FlightAware Transoceanic
03:14PM 55.5333 173.5500 244° Southwest 470 541 34,000  Level Anchorage Center
03:15PM 55.4500 173.3500 234° Southwest 460 529 34,000  Level Anchorage Center
03:16PM 55.3833 173.1833 235° Southwest 470 541 34,000  Level Anchorage Center
03:17PM 55.3167 172.9833 240° Southwest 460 529 34,000  Level Anchorage Center
03:18PM 55.2333 172.7667 236° Southwest 470 541 34,000  Level Anchorage Center
03:19PM 55.1667 172.6000 235° Southwest 470 541 34,000  Level Anchorage Center
03:20PM 55.0833 172.4000 234° Southwest 460 529 34,000  Level Anchorage Center
03:21PM 55.0167 172.2333 235° Southwest 470 541 34,000  Level Anchorage Center
03:22PM 54.9333 172.0333 234° Southwest 470 541 34,000  Level Anchorage Center
03:23PM 54.8833 171.8667 243° Southwest 460 529 34,000  Level Anchorage Center
03:24PM 54.8000 171.6667 234° Southwest 470 541 34,000  Level Anchorage Center
03:25PM 54.7333 171.5000 235° Southwest 470 541 34,000  Level Anchorage Center
03:26PM 54.6500 171.3000 234° Southwest 480 552 34,000  Level Anchorage Center
03:27PM 54.5667 171.1000 234° Southwest 460 529 34,000  Level Anchorage Center
03:28PM 54.5000 170.9333 235° Southwest 480 552 34,000  Level Anchorage Center
03:29PM 54.4000 170.7500 227° Southwest 480 552 34,000  Level Anchorage Center
03:30PM 54.3333 170.5833 236° Southwest 490 564 34,000  Level Anchorage Center
03:31PM 54.2500 170.3833 235° Southwest 470 541 34,000  Level Anchorage Center
03:32PM 54.1833 170.2333 233° Southwest 480 552 34,000  Level Anchorage Center
03:33PM 54.1000 170.0333 235° Southwest 480 552 34,000  Level Anchorage Center
03:34PM 54.0167 169.8333 235° Southwest 470 541 34,000  Level Anchorage Center
03:35PM 53.9500 169.6833 233° Southwest 480 552 34,000  Level Anchorage Center
03:36PM 53.8500 169.4833 230° Southwest 470 541 34,000  Level Anchorage Center
03:37PM 53.8000 169.3500 238° Southwest 440 506 34,000  Level Anchorage Center
03:38PM 53.7000 169.1500 230° Southwest 470 541 34,000  Level Anchorage Center
03:39PM 53.6500 168.9833 243° Southwest 470 541 34,000  Level Anchorage Center
03:44PM 53.4167 168.2333 240° Southwest 465 535 34,000  Level Anchorage Center
03:47PM 53.1833 167.5833 239° Southwest 468 539 34,000  Level Anchorage Center
03:57PM 52.5167 165.8000 238° Southwest 475 547 34,000  Level Anchorage Center
04:06PM 51.8333 164.0500 236° Southwest 467 537 34,000  Level Anchorage Center
04:09PM 51.6500 163.6500 236° Southwest 473 544 34,000  Level Anchorage Center
04:16PM 51.1167 162.3833 235° Southwest 474 545 34,000  Level Anchorage Center
04:25PM 50.3833 160.7500 232° Southwest 482 555 34,000  Level Anchorage Center
04:28PM 50.2000 160.3833 234° Southwest 488 562 34,000  Level Anchorage Center
04:29PM 50.1201 160.2097 234° Southwest 474 545 34,000  Level FlightAware Transoceanic
04:30PM 50.0399 160.0366 234° Southwest 474 545 34,000  Level FlightAware Transoceanic
04:31PM 49.9595 159.8641 234° Southwest 474 545 34,000  Level FlightAware Transoceanic
04:32PM 49.8788 159.6921 234° Southwest 482 555 34,000  Level FlightAware Transoceanic
04:33PM 49.7979 159.5208 234° Southwest 482 555 34,000  Level FlightAware Transoceanic
04:34PM 49.7167 159.3500 233° Southwest 488 562 34,000  Level FlightAware Transoceanic
04:35PM 49.6336 159.1805 233° Southwest 488 562 34,000  Level FlightAware Transoceanic
04:36PM 49.5503 159.0116 233° Southwest 488 562 34,000  Level FlightAware Transoceanic
04:37PM 49.4668 158.8432 233° Southwest 488 562 34,000  Level FlightAware Transoceanic
04:38PM 49.3830 158.6754 232° Southwest 488 562 34,000  Level FlightAware Transoceanic
04:39PM 49.2989 158.5082 232° Southwest 488 562 34,000  Level FlightAware Transoceanic
04:40PM 49.2146 158.3416 232° Southwest 488 562 34,000  Level FlightAware Transoceanic
04:41PM 49.1301 158.1755 232° Southwest 488 562 34,000  Level FlightAware Transoceanic
04:42PM 49.0454 158.0100 232° Southwest 488 562 34,000  Level FlightAware Transoceanic
04:43PM 48.9604 157.8450 232° Southwest 488 562 34,000  Level FlightAware Transoceanic
04:44PM 48.8752 157.6806 232° Southwest 488 562 34,000  Level FlightAware Transoceanic
04:45PM 48.7897 157.5168 232° Southwest 488 562 34,000  Level FlightAware Transoceanic
04:46PM 48.7040 157.3536 231° Southwest 488 562 34,000  Level FlightAware Transoceanic
04:47PM 48.6181 157.1909 231° Southwest 488 562 34,000  Level FlightAware Transoceanic
04:48PM 48.5320 157.0287 231° Southwest 488 562 34,000  Level FlightAware Transoceanic
04:49PM 48.4456 156.8671 231° Southwest 488 562 34,000  Level FlightAware Transoceanic
04:50PM 48.3590 156.7060 231° Southwest 488 562 34,000  Level FlightAware Transoceanic
04:51PM 48.2722 156.5455 231° Southwest 488 562 34,000  Level FlightAware Transoceanic
04:52PM 48.1851 156.3856 231° Southwest 488 562 34,000  Level FlightAware Transoceanic
04:53PM 48.0979 156.2262 231° Southwest 488 562 34,000  Level FlightAware Transoceanic
04:54PM 48.0104 156.0673 230° Southwest 488 562 34,000  Level FlightAware Transoceanic
04:55PM 47.9227 155.9089 230° Southwest 488 562 34,000  Level FlightAware Transoceanic
04:56PM 47.8348 155.7511 230° Southwest 488 562 34,000  Level FlightAware Transoceanic
04:57PM 47.7466 155.5939 230° Southwest 488 562 34,000  Level FlightAware Transoceanic
04:58PM 47.6583 155.4371 230° Southwest 488 562 34,000  Level FlightAware Transoceanic
04:59PM 47.5697 155.2809 230° Southwest 488 562 34,000  Level FlightAware Transoceanic
05:00PM 47.4809 155.1253 230° Southwest 488 562 34,000  Level FlightAware Transoceanic
05:01PM 47.3920 154.9701 230° Southwest 488 562 34,000  Level FlightAware Transoceanic
05:02PM 47.3028 154.8155 230° Southwest 488 562 34,000  Level FlightAware Transoceanic
05:03PM 47.2134 154.6614 229° Southwest 488 562 34,000  Level FlightAware Transoceanic
05:04PM 47.1238 154.5078 229° Southwest 488 562 34,000  Level FlightAware Transoceanic
05:05PM 47.0340 154.3547 229° Southwest 488 562 34,000  Level FlightAware Transoceanic
05:06PM 46.9439 154.2022 229° Southwest 488 562 34,000  Level FlightAware Transoceanic
05:07PM 46.8537 154.0501 229° Southwest 488 562 34,000  Level FlightAware Transoceanic
05:08PM 46.7633 153.8986 229° Southwest 488 562 34,000  Level FlightAware Transoceanic
05:09PM 46.6727 153.7476 229° Southwest 488 562 34,000  Level FlightAware Transoceanic
05:10PM 46.5819 153.5970 229° Southwest 488 562 34,000  Level FlightAware Transoceanic
05:11PM 46.4909 153.4470 229° Southwest 488 562 34,000  Level FlightAware Transoceanic
05:12PM 46.3997 153.2975 228° Southwest 488 562 34,000  Level FlightAware Transoceanic
05:13PM 46.3083 153.1485 228° Southwest 488 562 34,000  Level FlightAware Transoceanic
05:14PM 46.2231 153.0104 228° Southwest  Level FlightAware Approximate
05:15PM 46.1378 152.8728 228° Southwest  Level FlightAware Approximate
05:16PM 46.1438 152.8837 228° Southwest  Level FlightAware Approximate
05:17PM 46.0578 152.7471 228° Southwest  Level FlightAware Approximate
05:18PM 45.9717 152.6109 228° Southwest  Level FlightAware Approximate
05:19PM 45.8854 152.4752 228° Southwest  Level FlightAware Approximate
05:20PM 45.7989 152.3398 228° Southwest  Level FlightAware Approximate
05:21PM 45.7123 152.2049 227° Southwest  Level FlightAware Approximate
05:22PM 45.6255 152.0704 227° Southwest  Level FlightAware Approximate
05:23PM 45.5385 151.9364 227° Southwest  Level FlightAware Approximate
05:24PM 45.4514 151.8027 227° Southwest  Level FlightAware Approximate
05:25PM 45.3642 151.6694 227° Southwest  Level FlightAware Approximate
05:26PM 45.2768 151.5366 227° Southwest  Level FlightAware Approximate
05:27PM 45.1892 151.4042 227° Southwest  Level FlightAware Approximate
05:28PM 45.1015 151.2722 227° Southwest  Level FlightAware Approximate
05:29PM 45.0136 151.1405 227° Southwest  Level FlightAware Approximate
05:30PM 44.9256 151.0093 227° Southwest  Level FlightAware Approximate
05:31PM 44.8374 150.8785 226° Southwest  Level FlightAware Approximate
05:32PM 44.7491 150.7481 226° Southwest  Level FlightAware Approximate
05:33PM 44.6607 150.6181 226° Southwest  Level FlightAware Approximate
05:34PM 44.5721 150.4885 226° Southwest  Level FlightAware Approximate
05:35PM 44.4833 150.3592 226° Southwest  Level FlightAware Approximate
05:36PM 44.3944 150.2304 226° Southwest  Level FlightAware Approximate
05:37PM 44.3054 150.1020 226° Southwest  Level FlightAware Approximate
05:38PM 44.2162 149.9739 226° Southwest  Level FlightAware Approximate
05:39PM 44.1268 149.8463 226° Southwest  Level FlightAware Approximate
05:40PM 44.0373 149.7190 226° Southwest  Level FlightAware Approximate
05:41PM 43.9477 149.5921 226° Southwest  Level FlightAware Approximate
05:42PM 43.8580 149.4656 225° Southwest  Level FlightAware Approximate
05:43PM 43.7681 149.3394 225° Southwest  Level FlightAware Approximate
05:44PM 43.6781 149.2137 225° Southwest  Level FlightAware Approximate
05:45PM 43.5879 149.0883 225° Southwest  Level FlightAware Approximate
05:46PM 43.4976 148.9633 225° Southwest  Level FlightAware Approximate
05:47PM 43.4071 148.8387 225° Southwest  Level FlightAware Approximate
05:48PM 43.3165 148.7145 225° Southwest  Level FlightAware Approximate
05:49PM 43.2257 148.5907 225° Southwest  Level FlightAware Approximate
05:50PM 43.1349 148.4672 225° Southwest  Level FlightAware Approximate
05:51PM 43.0438 148.3441 225° Southwest  Level FlightAware Approximate
05:52PM 42.9527 148.2214 225° Southwest  Level FlightAware Approximate
05:53PM 42.8614 148.0990 225° Southwest  Level FlightAware Approximate
05:54PM 42.7700 147.9770 224° Southwest  Level FlightAware Approximate
05:55PM 42.6785 147.8554 224° Southwest  Level FlightAware Approximate
05:56PM 42.5868 147.7341 224° Southwest  Level FlightAware Approximate
05:57PM 42.4950 147.6131 224° Southwest  Level FlightAware Approximate
05:58PM 42.4031 147.4926 224° Southwest  Level FlightAware Approximate
05:59PM 42.3118 147.3713 225° Southwest  Level FlightAware Approximate
06:00PM 42.2206 147.2501 225° Southwest  Level FlightAware Approximate
06:01PM 42.1293 147.1293 224° Southwest  Level FlightAware Approximate
06:02PM 42.0378 147.0088 224° Southwest  Level FlightAware Approximate
06:03PM 41.9462 146.8886 224° Southwest  Level FlightAware Approximate
06:04PM 41.8540 146.7695 224° Southwest  Level FlightAware Approximate
06:05PM 41.7614 146.6510 224° Southwest  Level FlightAware Approximate
06:06PM 41.6688 146.5329 224° Southwest  Level FlightAware Approximate
06:07PM 41.5760 146.4151 224° Southwest  Level FlightAware Approximate
06:08PM 41.4831 146.2976 223° Southwest  Level FlightAware Approximate
06:09PM 41.3900 146.1805 223° Southwest  Level FlightAware Approximate
06:10PM 41.2969 146.0637 223° Southwest  Level FlightAware Approximate
06:11PM 41.2036 145.9473 223° Southwest  Level FlightAware Approximate
06:12PM 41.1102 145.8311 223° Southwest  Level FlightAware Approximate
06:13PM 41.0167 145.7154 223° Southwest  Level FlightAware Approximate
06:14PM 40.9231 145.5999 223° Southwest  Level FlightAware Approximate
06:15PM 40.8293 145.4848 223° Southwest  Level FlightAware Approximate
06:16PM 40.7355 145.3699 223° Southwest  Level FlightAware Approximate
06:17PM 40.6415 145.2555 223° Southwest  Level FlightAware Approximate
06:18PM 40.5475 145.1413 223° Southwest  Level FlightAware Approximate
06:19PM 40.4533 145.0275 223° Southwest  Level FlightAware Approximate
06:20PM 40.3751 144.8963 238° Southwest  Level FlightAware Approximate
06:21PM 40.3070 144.7542 238° Southwest  Level FlightAware Approximate
06:22PM 40.2388 144.6124 238° Southwest  Level FlightAware Approximate
06:23PM 40.1703 144.4709 238° Southwest  Level FlightAware Approximate
06:24PM 40.1017 144.3297 238° Southwest  Level FlightAware Approximate
06:25PM 40.0329 144.1887 238° Southwest  Level FlightAware Approximate
06:26PM 39.9640 144.0481 237° Southwest  Level FlightAware Approximate
06:27PM 39.8948 143.9077 237° Southwest  Level FlightAware Approximate
06:28PM 39.8257 143.7675 238° Southwest  Level FlightAware Approximate
06:29PM 39.7581 143.6261 238° Southwest  Level FlightAware Approximate
06:30PM 39.6903 143.4851 238° Southwest  Level FlightAware Approximate
06:31PM 39.6224 143.3443 238° Southwest  Level FlightAware Approximate
06:32PM 39.5542 143.2038 238° Southwest  Level FlightAware Approximate
06:33PM 39.4860 143.0636 238° Southwest  Level FlightAware Approximate
06:34PM 39.4175 142.9236 238° Southwest  Level FlightAware Approximate
06:35PM 39.3489 142.7840 238° Southwest  Level FlightAware Approximate
06:36PM 39.2800 142.6446 238° Southwest  Level FlightAware Approximate
06:37PM 39.2100 142.5065 230° Southwest  Level FlightAware Approximate
06:38PM 39.1269 142.3810 230° Southwest  Level FlightAware Approximate
06:39PM 39.0437 142.2558 229° Southwest  Level FlightAware Approximate
06:40PM 38.9604 142.1309 229° Southwest  Level FlightAware Approximate
06:40PM 38.1283 140.3383 243° Southwest 496 571 36,000  Level FlightAware ADS-B
06:41PM 38.0423 140.1310 243° Southwest 496 571 36,000  Level FlightAware ADS-B
06:42PM 38.0016 140.0335 243° Southwest 496 571 36,000  Level FlightAware ADS-B
06:43PM 37.9554 139.9232 243° Southwest 497 572 36,000  Level FlightAware ADS-B
06:43PM 37.9127 139.8213 243° Southwest 497 572 36,000  Level FlightAware ADS-B
06:44PM 37.8683 139.7162 243° Southwest 497 572 36,000  Level FlightAware ADS-B
06:45PM 37.8255 139.6150 243° Southwest 497 572 36,000  Level FlightAware ADS-B
06:45PM 37.7819 139.5122 243° Southwest 497 572 36,000  Level FlightAware ADS-B
06:46PM 37.7380 139.4090 243° Southwest 497 572 36,000  Level FlightAware ADS-B
06:47PM 37.6939 139.3055 243° Southwest 497 572 36,000  Level FlightAware ADS-B
06:47PM 37.6540 139.2124 243° Southwest 497 572 36,000  Level FlightAware ADS-B
06:48PM 37.6050 139.0983 242° Southwest 502 578 36,000  Level FlightAware ADS-B
06:49PM 37.5624 138.9994 242° Southwest 502 578 36,000  Level FlightAware ADS-B
06:49PM 37.5189 138.8990 241° Southwest 502 578 36,000  Level FlightAware ADS-B
06:50PM 37.4746 138.7968 241° Southwest 502 578 36,000  Level FlightAware ADS-B
06:51PM 37.4325 138.6998 241° Southwest 503 579 36,000  Level FlightAware ADS-B
06:51PM 37.3900 138.6025 241° Southwest 502 578 36,000  Level FlightAware ADS-B
06:52PM 37.3418 138.4848 245° Southwest 497 572 36,000  Level FlightAware ADS-B
06:53PM 37.3018 138.3805 245° Southwest 495 570 36,000  Level FlightAware ADS-B
06:53PM 37.2612 138.2765 245° Southwest 495 570 36,000  Level FlightAware ADS-B
06:54PM 37.2247 138.1839 244° Southwest 495 570 36,000  Level FlightAware ADS-B
06:55PM 37.1807 138.0733 243° Southwest 498 573 36,000  Level FlightAware ADS-B
06:55PM 37.1424 137.9778 243° Southwest 497 572 36,000  Level FlightAware ADS-B
06:56PM 37.1018 137.8768 243° Southwest 497 572 36,000  Level FlightAware ADS-B
06:57PM 37.0412 137.7259 243° Southwest 497 572 36,000  Level FlightAware ADS-B
06:58PM 36.9967 137.6155 243° Southwest 496 571 36,000  Level FlightAware ADS-B
06:58PM 36.9528 137.5067 243° Southwest 496 571 36,000  Level FlightAware ADS-B
06:59PM 36.9115 137.4050 243° Southwest 496 571 36,000  Level FlightAware ADS-B
07:00PM 36.8719 137.3076 243° Southwest 496 571 36,000  Level FlightAware ADS-B
07:00PM 36.8287 137.2019 243° Southwest 496 571 36,000  Level FlightAware ADS-B
07:01PM 36.7932 137.1149 243° Southwest 495 570 36,000  Level FlightAware ADS-B
07:02PM 36.7364 136.9767 243° Southwest 495 570 36,000  Level FlightAware ADS-B
07:03PM 36.6629 136.7987 243° Southwest 496 571 36,000  Level FlightAware ADS-B
07:04PM 36.5980 136.6425 243° Southwest 496 571 36,000  Level FlightAware ADS-B
07:07PM 36.3703 136.3645 245° Southwest  Level FlightAware Approximate
07:08PM 36.3171 136.2201 245° Southwest  Level FlightAware Approximate
07:09PM 36.2637 136.0758 245° Southwest  Level FlightAware Approximate
07:10PM 36.2102 135.9318 245° Southwest  Level FlightAware Approximate
07:11PM 36.1564 135.7880 245° Southwest  Level FlightAware Approximate
07:12PM 36.1026 135.6443 245° Southwest  Level FlightAware Approximate
07:13PM 36.0485 135.5009 245° Southwest  Level FlightAware Approximate
07:14PM 35.9943 135.3576 245° Southwest  Level FlightAware Approximate
07:15PM 35.9398 135.2146 245° Southwest  Level FlightAware Approximate
07:16PM 35.8853 135.0717 245° Southwest  Level FlightAware Approximate
07:17PM 35.8236 134.9337 244° Southwest  Level FlightAware Approximate
07:18PM 35.7669 134.7923 244° Southwest  Level FlightAware Approximate
07:19PM 35.7160 134.6478 248° West  Level FlightAware Approximate
07:20PM 35.6622 134.5050 245° Southwest  Level FlightAware Approximate
07:21PM 35.6075 134.3627 245° Southwest  Level FlightAware Approximate
07:22PM 35.5491 134.2228 241° Southwest  Level FlightAware Approximate
07:23PM 35.4698 134.1969 141° Southeast  Level FlightAware Approximate
07:24PM 35.3715 134.2972 136° Southeast  Level FlightAware Approximate
07:25PM 35.2783 134.4045 144° Southeast  Level FlightAware Approximate
07:26PM 35.1748 134.4965 144° Southeast  Level FlightAware Approximate
07:27PM 35.0786 134.5990 135° Southeast  Level FlightAware Approximate
07:28PM 34.9821 134.7013 141° Southeast  Level FlightAware Approximate
07:29PM 34.8772 134.7895 141° Southeast  Level FlightAware Approximate
07:30PM 34.7784 134.8884 141° Southeast  Level FlightAware Approximate
07:31PM 34.6795 134.9872 141° Southeast  Level FlightAware Approximate
07:32PM 34.5767 135.0766 129° Southeast  Level FlightAware Approximate
07:33PM 34.4785 135.1715 140° Southeast  Level FlightAware Approximate
07:34PM 34.4167 135.2333 140° Southeast  Level FlightAware Approximate
07:35PM 34.4273 135.2441 140° Southeast  Level Estimated
07:36PM 34.4273 135.2441 140° Southeast  Level Estimated
07:37PM 34.4273 135.2441 140° Southeast  Level Estimated
07:38PM 34.4273 135.2441 140° Southeast  Level Estimated
07:39PM 34.4273 135.2441 140° Southeast  Level Estimated
07:40PM 34.4273 135.2441 140° Southeast  Level Estimated
07:41PM 34.4273 135.2441 140° Southeast  Level Estimated
07:42PM 34.4273 135.2441 140° Southeast  Level Estimated
07:43PM 34.4273 135.2441 140° Southeast  Level Estimated
07:44PM 34.4273 135.2441 140° Southeast  Level Estimated
07:45PM 34.4273 135.2441 140° Southeast  Level Estimated
07:46PM 34.4273 135.2441 140° Southeast  Level Estimated
07:47PM 34.4273 135.2441 140° Southeast  Level Estimated
07:48PM 34.4273 135.2441 140° Southeast  Level Estimated
07:49PM 34.4273 135.2441 140° Southeast  Level Estimated
07:50PM 34.4273 135.2441 140° Southeast  Level Estimated
07:51PM 34.4273 135.2441 140° Southeast  Level Estimated
07:52PM 34.4273 135.2441 140° Southeast  Level Estimated
07:53PM 34.4273 135.2441 140° Southeast  Level Estimated
07:54PM 34.4273 135.2441 140° Southeast  Level Estimated
07:55PM 34.4273 135.2441 140° Southeast  Level Estimated
07:56PM 34.4273 135.2441 140° Southeast  Level Estimated
07:57PM 34.4273 135.2441 140° Southeast  Level Estimated
07:58PM 34.4273 135.2441 140° Southeast  Level Estimated
07:59PM 34.4273 135.2441 140° Southeast  Level Estimated